createdAt,value
2019-01-12T00:00:25.097Z,12.80
2019-01-12T00:01:25.069Z,12.20
2019-01-12T00:02:25.053Z,12.40
2019-01-12T00:03:25.024Z,12.00
2019-01-12T00:04:25.000Z,11.30
2019-01-12T00:05:24.993Z,10.50
2019-01-12T00:06:24.963Z,10.20
2019-01-12T00:07:24.931Z,9.10
2019-01-12T00:08:24.921Z,7.50
2019-01-12T00:09:24.901Z,9.60
2019-01-12T00:10:24.865Z,10.20
2019-01-12T00:11:24.835Z,12.30
2019-01-12T00:12:24.823Z,9.50
2019-01-12T00:13:24.799Z,9.70
2019-01-12T00:14:24.766Z,13.50
2019-01-12T00:15:24.747Z,9.10
2019-01-12T00:16:24.720Z,10.30
2019-01-12T00:17:24.702Z,9.20
2019-01-12T00:18:24.673Z,9.10
2019-01-12T00:19:24.657Z,13.20
2019-01-12T00:20:24.627Z,6.00
2019-01-12T00:21:24.602Z,9.30
2019-01-12T00:22:24.595Z,12.10
2019-01-12T00:23:24.556Z,10.60
2019-01-12T00:24:31.352Z,8.10
2019-01-12T00:25:24.518Z,11.20
2019-01-12T00:26:24.484Z,7.50
2019-01-12T00:27:24.469Z,14.50
2019-01-12T00:28:24.447Z,8.60
2019-01-12T00:29:24.417Z,9.50
2019-01-12T00:30:24.391Z,7.60
2019-01-12T00:31:24.379Z,9.10
2019-01-12T00:32:24.344Z,12.40
2019-01-12T00:33:24.338Z,7.00
2019-01-12T00:34:24.297Z,7.60
2019-01-12T00:35:24.274Z,9.50
2019-01-12T00:36:24.250Z,8.80
2019-01-12T00:37:24.236Z,7.30
2019-01-12T00:38:24.206Z,7.00
2019-01-12T00:39:24.180Z,10.50
2019-01-12T00:40:24.207Z,9.40
2019-01-12T00:41:24.134Z,7.40
2019-01-12T00:42:24.116Z,10.00
2019-01-12T00:43:24.086Z,10.60
2019-01-12T00:44:24.064Z,5.60
2019-01-12T00:45:24.041Z,8.50
2019-01-12T00:46:24.028Z,8.90
2019-01-12T00:47:23.997Z,7.10
2019-01-12T00:48:23.971Z,8.80
2019-01-12T00:49:23.949Z,7.30
2019-01-12T00:50:23.938Z,8.50
2019-01-12T00:51:23.900Z,8.60
2019-01-12T00:52:23.880Z,8.10
2019-01-12T00:53:23.855Z,9.00
2019-01-12T00:54:23.833Z,8.10
2019-01-12T00:55:23.806Z,10.40
2019-01-12T00:56:23.788Z,6.00
2019-01-12T00:57:23.773Z,10.00
2019-01-12T00:58:23.738Z,7.30
2019-01-12T00:59:23.715Z,10.60
2019-01-12T01:00:23.741Z,7.00
2019-01-12T01:01:23.673Z,5.70
2019-01-12T01:02:23.651Z,9.80
2019-01-12T01:03:23.622Z,5.00
2019-01-12T01:04:25.019Z,9.30
2019-01-12T01:05:23.575Z,5.30
2019-01-12T01:06:23.550Z,7.80
2019-01-12T01:07:23.535Z,7.30
2019-01-12T01:08:23.507Z,6.50
2019-01-12T01:09:23.480Z,6.20
2019-01-12T01:10:23.457Z,9.70
2019-01-12T01:11:23.439Z,8.70
2019-01-12T01:12:23.411Z,10.20
2019-01-12T01:13:23.394Z,5.90
2019-01-12T01:14:23.362Z,6.40
2019-01-12T01:15:23.338Z,8.40
2019-01-12T01:16:23.322Z,7.90
2019-01-12T01:17:23.294Z,8.90
2019-01-12T01:18:23.269Z,6.80
2019-01-12T01:19:23.243Z,8.30
2019-01-12T01:20:23.221Z,7.90
2019-01-12T01:21:24.267Z,8.70
2019-01-12T01:22:23.189Z,8.90
2019-01-12T01:23:23.150Z,5.70
2019-01-12T01:24:23.134Z,7.10
2019-01-12T01:25:23.104Z,8.20
2019-01-12T01:26:23.085Z,8.60
2019-01-12T01:27:23.056Z,9.00
2019-01-12T01:28:23.035Z,12.60
2019-01-12T01:29:23.009Z,15.60
2019-01-12T01:30:22.987Z,5.10
2019-01-12T01:31:22.963Z,7.00
2019-01-12T01:32:22.962Z,5.80
2019-01-12T01:33:27.892Z,9.50
2019-01-12T01:34:22.894Z,11.20
2019-01-12T01:35:22.869Z,9.20
2019-01-12T01:36:22.847Z,8.40
2019-01-12T01:37:22.822Z,11.80
2019-01-12T01:38:22.798Z,11.00
2019-01-12T01:39:22.775Z,11.90
2019-01-12T01:40:22.752Z,7.70
2019-01-12T01:41:22.727Z,7.90
2019-01-12T01:42:22.706Z,9.60
2019-01-12T01:43:22.679Z,7.40
2019-01-12T01:44:22.658Z,8.10
2019-01-12T01:45:22.642Z,9.00
2019-01-12T01:46:22.609Z,7.50
2019-01-12T01:47:22.587Z,8.40
2019-01-12T01:48:22.562Z,6.90
2019-01-12T01:49:22.551Z,5.60
2019-01-12T01:50:22.516Z,7.00
2019-01-12T01:51:22.491Z,6.10
2019-01-12T01:52:22.471Z,7.70
2019-01-12T01:53:22.446Z,12.10
2019-01-12T01:54:22.430Z,6.20
2019-01-12T01:55:22.399Z,4.00
2019-01-12T01:56:22.378Z,6.90
2019-01-12T01:57:22.351Z,9.00
2019-01-12T01:58:22.436Z,5.40
2019-01-12T01:59:22.313Z,10.50
2019-01-12T02:00:22.280Z,6.00
2019-01-12T02:01:22.262Z,8.60
2019-01-12T02:02:22.236Z,6.30
2019-01-12T02:03:22.214Z,6.90
2019-01-12T02:04:22.188Z,7.30
2019-01-12T02:05:22.163Z,3.90
2019-01-12T02:06:22.141Z,6.60
2019-01-12T02:07:22.121Z,6.70
2019-01-12T02:08:22.091Z,5.40
2019-01-12T02:09:22.080Z,6.90
2019-01-12T02:10:22.053Z,7.10
2019-01-12T02:11:22.022Z,5.10
2019-01-12T02:12:22.001Z,4.90
2019-01-12T02:13:21.983Z,4.30
2019-01-12T02:14:21.959Z,7.40
2019-01-12T02:15:21.932Z,5.60
2019-01-12T02:16:21.920Z,4.70
2019-01-12T02:17:21.890Z,5.40
2019-01-12T02:18:21.858Z,6.50
2019-01-12T02:19:21.833Z,4.70
2019-01-12T02:20:23.171Z,4.90
2019-01-12T02:21:21.787Z,5.90
2019-01-12T02:22:21.763Z,4.30
2019-01-12T02:23:21.738Z,5.70
2019-01-12T02:24:21.715Z,4.40
2019-01-12T02:25:21.695Z,4.40
2019-01-12T02:26:21.676Z,6.30
2019-01-12T02:27:21.650Z,4.10
2019-01-12T02:28:21.619Z,2.60
2019-01-12T02:29:21.606Z,6.20
2019-01-12T02:30:21.580Z,7.10
2019-01-12T02:31:21.552Z,4.10
2019-01-12T02:32:21.527Z,4.30
2019-01-12T02:33:21.505Z,6.80
2019-01-12T02:34:21.496Z,8.10
2019-01-12T02:35:21.457Z,4.20
2019-01-12T02:36:21.434Z,5.80
2019-01-12T02:37:21.420Z,5.30
2019-01-12T02:38:21.398Z,3.20
2019-01-12T02:39:21.399Z,4.40
2019-01-12T02:40:21.362Z,7.10
2019-01-12T02:41:21.325Z,4.60
2019-01-12T02:42:21.293Z,3.70
2019-01-12T02:43:21.267Z,3.30
2019-01-12T02:44:21.243Z,4.90
2019-01-12T02:45:21.221Z,4.30
2019-01-12T02:46:21.195Z,4.10
2019-01-12T02:47:21.173Z,6.00
2019-01-12T02:48:21.151Z,3.00
2019-01-12T02:49:21.125Z,5.50
2019-01-12T02:50:21.105Z,4.10
2019-01-12T02:51:21.078Z,6.20
2019-01-12T02:52:21.055Z,5.60
2019-01-12T02:53:21.030Z,5.60
2019-01-12T02:54:21.008Z,5.40
2019-01-12T02:55:20.990Z,4.10
2019-01-12T02:56:20.960Z,6.50
2019-01-12T02:57:20.944Z,4.40
2019-01-12T02:58:20.913Z,6.30
2019-01-12T02:59:20.887Z,5.70
2019-01-12T03:00:20.863Z,5.00
2019-01-12T03:01:20.841Z,5.20
2019-01-12T03:02:20.818Z,5.60
2019-01-12T03:03:20.792Z,6.30
2019-01-12T03:04:20.789Z,3.80
2019-01-12T03:05:20.746Z,7.80
2019-01-12T03:06:20.722Z,7.00
2019-01-12T03:07:20.782Z,4.30
2019-01-12T03:08:20.674Z,4.40
2019-01-12T03:09:20.653Z,6.00
2019-01-12T03:10:20.627Z,8.00
2019-01-12T03:11:20.610Z,5.20
2019-01-12T03:12:20.583Z,4.20
2019-01-12T03:13:20.558Z,4.80
2019-01-12T03:14:20.533Z,6.60
2019-01-12T03:15:20.510Z,7.50
2019-01-12T03:16:20.487Z,5.30
2019-01-12T03:17:20.464Z,7.10
2019-01-12T03:18:20.441Z,6.50
2019-01-12T03:19:20.418Z,4.20
2019-01-12T03:20:20.396Z,4.80
2019-01-12T03:21:20.368Z,6.70
2019-01-12T03:22:20.342Z,8.40
2019-01-12T03:23:20.321Z,4.70
2019-01-12T03:24:20.295Z,4.30
2019-01-12T03:25:20.292Z,4.20
2019-01-12T03:26:20.252Z,5.80
2019-01-12T03:27:20.224Z,5.00
2019-01-12T03:28:20.224Z,4.10
2019-01-12T03:29:20.180Z,5.70
2019-01-12T03:30:20.192Z,4.80
2019-01-12T03:31:20.169Z,4.90
2019-01-12T03:32:20.122Z,5.80
2019-01-12T03:33:20.090Z,3.90
2019-01-12T03:34:20.056Z,6.30
2019-01-12T03:35:20.047Z,6.20
2019-01-12T03:36:20.009Z,3.80
2019-01-12T03:37:19.992Z,4.90
2019-01-12T03:38:19.964Z,3.50
2019-01-12T03:39:19.939Z,6.70
2019-01-12T03:40:19.917Z,5.60
2019-01-12T03:41:19.889Z,4.70
2019-01-12T03:42:19.875Z,3.50
2019-01-12T03:43:19.847Z,5.60
2019-01-12T03:44:19.819Z,4.90
2019-01-12T03:45:19.802Z,3.10
2019-01-12T03:46:19.869Z,4.10
2019-01-12T03:47:19.758Z,3.90
2019-01-12T03:48:19.733Z,4.30
2019-01-12T03:49:19.707Z,5.70
2019-01-12T03:50:19.695Z,7.20
2019-01-12T03:51:19.652Z,5.10
2019-01-12T03:52:19.636Z,5.00
2019-01-12T03:53:19.603Z,4.00
2019-01-12T03:54:19.585Z,5.10
2019-01-12T03:55:25.483Z,5.50
2019-01-12T03:56:19.530Z,6.60
2019-01-12T03:57:19.506Z,5.50
2019-01-12T03:58:19.489Z,3.40
2019-01-12T03:59:19.460Z,9.70
2019-01-12T04:00:19.436Z,8.10
2019-01-12T04:01:19.411Z,5.40
2019-01-12T04:02:19.402Z,5.30
2019-01-12T04:03:19.366Z,7.00
2019-01-12T04:04:19.343Z,5.30
2019-01-12T04:05:19.338Z,3.80
2019-01-12T04:06:19.293Z,6.40
2019-01-12T04:07:19.268Z,9.30
2019-01-12T04:08:19.250Z,4.40
2019-01-12T04:09:19.221Z,9.00
2019-01-12T04:10:19.206Z,4.20
2019-01-12T04:11:19.179Z,8.00
2019-01-12T04:12:19.148Z,7.60
2019-01-12T04:13:19.124Z,7.40
2019-01-12T04:14:19.170Z,7.00
2019-01-12T04:15:19.077Z,5.00
2019-01-12T04:16:19.052Z,5.40
2019-01-12T04:17:19.032Z,6.70
2019-01-12T04:18:19.006Z,5.50
2019-01-12T04:19:18.981Z,6.70
2019-01-12T04:20:18.968Z,4.30
2019-01-12T04:21:18.933Z,5.00
2019-01-12T04:22:18.912Z,8.70
2019-01-12T04:23:18.891Z,8.80
2019-01-12T04:24:18.858Z,5.80
2019-01-12T04:25:18.836Z,6.90
2019-01-12T04:26:18.819Z,6.20
2019-01-12T04:27:18.787Z,4.70
2019-01-12T04:28:18.775Z,6.80
2019-01-12T04:29:18.739Z,6.40
2019-01-12T04:30:18.713Z,8.00
2019-01-12T04:31:18.691Z,7.70
2019-01-12T04:32:18.677Z,8.50
2019-01-12T04:33:18.644Z,5.40
2019-01-12T04:34:18.621Z,7.70
2019-01-12T04:35:18.593Z,8.90
2019-01-12T04:36:18.569Z,9.90
2019-01-12T04:37:18.551Z,8.70
2019-01-12T04:38:18.524Z,5.90
2019-01-12T04:39:18.497Z,8.50
2019-01-12T04:40:18.474Z,6.90
2019-01-12T04:41:18.458Z,7.50
2019-01-12T04:42:18.432Z,7.60
2019-01-12T04:43:18.415Z,6.10
2019-01-12T04:44:18.647Z,5.60
2019-01-12T04:45:18.357Z,7.80
2019-01-12T04:46:18.332Z,5.80
2019-01-12T04:47:18.382Z,11.50
2019-01-12T04:48:19.664Z,6.70
2019-01-12T04:49:18.258Z,10.30
2019-01-12T04:50:18.245Z,4.90
2019-01-12T04:51:18.211Z,7.70
2019-01-12T04:52:18.190Z,7.10
2019-01-12T04:53:18.174Z,8.90
2019-01-12T04:54:18.139Z,7.70
2019-01-12T04:55:18.116Z,12.90
2019-01-12T04:56:18.094Z,5.70
2019-01-12T04:57:18.067Z,4.90
2019-01-12T04:58:18.044Z,4.60
2019-01-12T04:59:18.020Z,7.10
2019-01-12T05:00:17.996Z,7.50
2019-01-12T05:01:17.980Z,5.70
2019-01-12T05:02:17.949Z,8.10
2019-01-12T05:03:17.924Z,11.30
2019-01-12T05:04:17.900Z,6.10
2019-01-12T05:05:17.878Z,7.40
2019-01-12T05:06:17.872Z,8.20
2019-01-12T05:07:17.830Z,5.70
2019-01-12T05:08:17.806Z,9.40
2019-01-12T05:09:17.782Z,7.60
2019-01-12T05:10:17.760Z,7.70
2019-01-12T05:11:17.733Z,5.00
2019-01-12T05:12:17.710Z,4.90
2019-01-12T05:13:17.685Z,7.20
2019-01-12T05:14:17.666Z,5.20
2019-01-12T05:15:17.640Z,6.00
2019-01-12T05:16:17.627Z,5.90
2019-01-12T05:17:17.593Z,5.60
2019-01-12T05:18:17.568Z,5.60
2019-01-12T05:19:17.541Z,5.60
2019-01-12T05:20:17.527Z,7.50
2019-01-12T05:21:17.493Z,5.80
2019-01-12T05:22:17.471Z,8.40
2019-01-12T05:23:17.444Z,7.90
2019-01-12T05:24:17.436Z,8.10
2019-01-12T05:25:17.396Z,9.20
2019-01-12T05:26:17.444Z,6.90
2019-01-12T05:27:17.363Z,7.00
2019-01-12T05:28:17.331Z,7.00
2019-01-12T05:29:17.300Z,7.70
2019-01-12T05:30:17.356Z,7.30
2019-01-12T05:31:17.252Z,9.20
2019-01-12T05:32:17.228Z,6.10
2019-01-12T05:33:17.215Z,6.30
2019-01-12T05:34:17.179Z,8.80
2019-01-12T05:35:17.155Z,6.30
2019-01-12T05:36:17.133Z,6.10
2019-01-12T05:37:17.111Z,7.60
2019-01-12T05:38:17.082Z,6.30
2019-01-12T05:39:17.071Z,8.20
2019-01-12T05:40:17.036Z,7.70
2019-01-12T05:41:17.012Z,7.80
2019-01-12T05:42:16.987Z,7.70
2019-01-12T05:43:16.963Z,6.10
2019-01-12T05:44:16.947Z,7.80
2019-01-12T05:45:16.915Z,5.10
2019-01-12T05:46:16.891Z,5.60
2019-01-12T05:47:16.870Z,5.40
2019-01-12T05:48:16.843Z,4.80
2019-01-12T05:49:16.819Z,8.90
2019-01-12T05:50:16.800Z,7.60
2019-01-12T05:51:16.769Z,8.80
2019-01-12T05:52:16.744Z,6.10
2019-01-12T05:53:16.735Z,6.30
2019-01-12T05:54:16.697Z,8.30
2019-01-12T05:55:16.673Z,5.00
2019-01-12T05:56:16.658Z,6.20
2019-01-12T05:57:16.626Z,7.90
2019-01-12T05:58:16.600Z,5.70
2019-01-12T05:59:16.579Z,4.10
2019-01-12T06:00:16.568Z,6.60
2019-01-12T06:01:16.526Z,6.30
2019-01-12T06:02:16.503Z,5.50
2019-01-12T06:03:16.480Z,7.00
2019-01-12T06:04:16.460Z,6.70
2019-01-12T06:05:16.430Z,5.50
2019-01-12T06:06:16.407Z,6.70
2019-01-12T06:07:16.387Z,4.30
2019-01-12T06:08:16.358Z,5.10
2019-01-12T06:09:16.333Z,6.90
2019-01-12T06:10:16.310Z,7.40
2019-01-12T06:11:16.291Z,6.30
2019-01-12T06:12:16.261Z,6.70
2019-01-12T06:13:16.239Z,10.20
2019-01-12T06:14:16.213Z,6.80
2019-01-12T06:15:16.187Z,7.20
2019-01-12T06:16:16.163Z,8.50
2019-01-12T06:17:16.240Z,7.90
2019-01-12T06:18:16.115Z,6.90
2019-01-12T06:19:16.090Z,10.30
2019-01-12T06:20:16.066Z,6.90
2019-01-12T06:21:16.049Z,6.10
2019-01-12T06:22:16.017Z,7.70
2019-01-12T06:23:15.991Z,10.30
2019-01-12T06:24:15.978Z,7.40
2019-01-12T06:25:15.950Z,10.10
2019-01-12T06:26:15.924Z,10.60
2019-01-12T06:27:15.900Z,8.90
2019-01-12T06:28:15.893Z,7.60
2019-01-12T06:29:15.857Z,8.00
2019-01-12T06:30:15.825Z,8.10
2019-01-12T06:31:15.808Z,10.50
2019-01-12T06:32:15.777Z,11.90
2019-01-12T06:33:15.752Z,12.20
2019-01-12T06:34:15.725Z,8.30
2019-01-12T06:35:15.702Z,8.90
2019-01-12T06:36:15.677Z,12.70
2019-01-12T06:37:15.654Z,12.10
2019-01-12T06:38:15.644Z,9.40
2019-01-12T06:39:15.612Z,11.40
2019-01-12T06:40:15.581Z,12.90
2019-01-12T06:41:15.558Z,11.20
2019-01-12T06:42:15.538Z,11.20
2019-01-12T06:43:15.507Z,10.70
2019-01-12T06:44:15.483Z,14.00
2019-01-12T06:45:15.460Z,11.30
2019-01-12T06:46:15.436Z,13.90
2019-01-12T06:47:15.409Z,12.30
2019-01-12T06:48:15.392Z,10.60
2019-01-12T06:49:15.362Z,13.70
2019-01-12T06:50:15.337Z,14.00
2019-01-12T06:51:15.315Z,12.70
2019-01-12T06:52:15.288Z,13.70
2019-01-12T06:53:15.264Z,14.70
2019-01-12T06:54:15.247Z,13.00
2019-01-12T06:55:15.221Z,13.40
2019-01-12T06:56:15.190Z,12.60
2019-01-12T06:57:15.184Z,15.50
2019-01-12T06:58:15.156Z,16.70
2019-01-12T06:59:15.119Z,13.70
2019-01-12T07:00:15.094Z,13.70
2019-01-12T07:01:15.079Z,13.90
2019-01-12T07:02:15.046Z,19.20
2019-01-12T07:03:15.021Z,14.00
2019-01-12T07:04:15.001Z,12.60
2019-01-12T07:05:14.972Z,13.50
2019-01-12T07:06:14.951Z,13.70
2019-01-12T07:07:14.925Z,14.40
2019-01-12T07:08:14.900Z,17.70
2019-01-12T07:09:14.885Z,16.90
2019-01-12T07:10:14.853Z,17.80
2019-01-12T07:11:14.828Z,20.20
2019-01-12T07:12:14.811Z,17.30
2019-01-12T07:13:14.788Z,13.70
2019-01-12T07:14:14.755Z,17.40
2019-01-12T07:15:14.832Z,16.40
2019-01-12T07:16:14.705Z,16.80
2019-01-12T07:17:14.683Z,17.10
2019-01-12T07:18:14.659Z,17.70
2019-01-12T07:19:14.633Z,18.00
2019-01-12T07:20:14.610Z,17.20
2019-01-12T07:21:14.597Z,20.70
2019-01-12T07:22:14.561Z,22.20
2019-01-12T07:23:14.548Z,17.30
2019-01-12T07:24:14.518Z,19.90
2019-01-12T07:25:14.487Z,20.80
2019-01-12T07:26:17.639Z,21.00
2019-01-12T07:27:14.440Z,19.30
2019-01-12T07:28:14.422Z,18.90
2019-01-12T07:29:14.395Z,20.50
2019-01-12T07:30:14.492Z,22.30
2019-01-12T07:31:14.348Z,22.30
2019-01-12T07:32:14.323Z,16.60
2019-01-12T07:33:14.299Z,22.30
2019-01-12T07:34:14.270Z,21.10
2019-01-12T07:35:14.264Z,20.60
2019-01-12T07:36:14.225Z,21.90
2019-01-12T07:37:14.209Z,23.60
2019-01-12T07:38:14.177Z,18.40
2019-01-12T07:39:14.153Z,22.20
2019-01-12T07:40:14.132Z,20.20
2019-01-12T07:41:14.107Z,20.80
2019-01-12T07:42:14.085Z,18.80
2019-01-12T07:43:14.050Z,20.90
2019-01-12T07:44:14.030Z,23.50
2019-01-12T07:45:14.002Z,24.00
2019-01-12T07:46:14.009Z,21.20
2019-01-12T07:47:13.958Z,24.50
2019-01-12T07:48:13.929Z,26.20
2019-01-12T07:49:13.908Z,23.90
2019-01-12T07:50:13.881Z,22.00
2019-01-12T07:51:13.956Z,22.50
2019-01-12T07:52:13.838Z,24.20
2019-01-12T07:53:13.810Z,23.80
2019-01-12T07:54:13.883Z,22.30
2019-01-12T07:55:13.760Z,25.20
2019-01-12T07:56:13.742Z,23.30
2019-01-12T07:57:13.711Z,29.00
2019-01-12T07:58:13.689Z,25.20
2019-01-12T07:59:13.662Z,24.50
2019-01-12T08:00:13.640Z,25.30
2019-01-12T08:01:13.619Z,22.00
2019-01-12T08:02:13.592Z,26.00
2019-01-12T08:03:13.565Z,25.60
2019-01-12T08:04:13.545Z,23.80
2019-01-12T08:05:13.539Z,22.70
2019-01-12T08:06:13.494Z,28.80
2019-01-12T08:07:13.476Z,25.60
2019-01-12T08:08:13.445Z,24.20
2019-01-12T08:09:13.425Z,26.60
2019-01-12T08:10:13.396Z,23.20
2019-01-12T08:11:13.371Z,24.10
2019-01-12T08:12:13.356Z,24.20
2019-01-12T08:13:13.334Z,28.10
2019-01-12T08:14:13.306Z,24.20
2019-01-12T08:15:13.289Z,23.30
2019-01-12T08:16:13.256Z,27.70
2019-01-12T08:17:13.226Z,23.00
2019-01-12T08:18:13.203Z,25.40
2019-01-12T08:19:13.178Z,23.20
2019-01-12T08:20:13.161Z,22.80
2019-01-12T08:21:13.135Z,22.60
2019-01-12T08:22:13.105Z,21.30
2019-01-12T08:23:13.082Z,20.40
2019-01-12T08:24:13.063Z,25.10
2019-01-12T08:25:13.034Z,22.60
2019-01-12T08:26:13.044Z,20.30
2019-01-12T08:27:12.997Z,22.00
2019-01-12T08:28:12.961Z,22.70
2019-01-12T08:29:12.951Z,22.40
2019-01-12T08:30:12.920Z,19.80
2019-01-12T08:31:12.890Z,21.70
2019-01-12T08:32:12.862Z,23.30
2019-01-12T08:33:12.900Z,22.70
2019-01-12T08:34:12.816Z,24.10
2019-01-12T08:35:12.795Z,23.60
2019-01-12T08:36:12.768Z,23.30
2019-01-12T08:37:12.804Z,23.40
2019-01-12T08:38:12.721Z,22.70
2019-01-12T08:39:12.711Z,25.20
2019-01-12T08:40:12.674Z,22.40
2019-01-12T08:41:12.654Z,24.50
2019-01-12T08:42:12.632Z,20.00
2019-01-12T08:43:12.602Z,26.60
2019-01-12T08:44:12.575Z,20.70
2019-01-12T08:45:12.565Z,20.90
2019-01-12T08:46:12.529Z,23.20
2019-01-12T08:47:12.512Z,20.80
2019-01-12T08:48:12.487Z,22.90
2019-01-12T08:49:12.455Z,24.00
2019-01-12T08:50:12.431Z,22.00
2019-01-12T08:51:12.422Z,23.30
2019-01-12T08:52:12.382Z,20.60
2019-01-12T08:53:12.380Z,20.90
2019-01-12T08:54:12.334Z,25.80
2019-01-12T08:55:12.311Z,26.40
2019-01-12T08:56:12.287Z,24.20
2019-01-12T08:57:12.263Z,24.90
2019-01-12T08:58:12.238Z,23.30
2019-01-12T08:59:12.228Z,21.70
2019-01-12T09:00:12.191Z,23.20
2019-01-12T09:01:12.165Z,28.10
2019-01-12T09:02:12.158Z,24.60
2019-01-12T09:03:12.123Z,24.50
2019-01-12T09:04:12.091Z,24.60
2019-01-12T09:05:12.074Z,28.80
2019-01-12T09:06:12.056Z,23.60
2019-01-12T09:07:12.020Z,28.80
2019-01-12T09:08:11.998Z,26.30
2019-01-12T09:09:11.977Z,25.80
2019-01-12T09:10:11.951Z,24.70
2019-01-12T09:11:11.941Z,24.20
2019-01-12T09:12:11.899Z,27.50
2019-01-12T09:13:11.904Z,24.90
2019-01-12T09:14:11.862Z,26.60
2019-01-12T09:15:11.827Z,27.20
2019-01-12T09:16:11.806Z,30.30
2019-01-12T09:17:11.787Z,28.90
2019-01-12T09:18:11.758Z,29.70
2019-01-12T09:19:11.733Z,30.80
2019-01-12T09:20:11.708Z,27.80
2019-01-12T09:21:11.689Z,30.00
2019-01-12T09:22:11.669Z,27.80
2019-01-12T09:23:11.634Z,27.70
2019-01-12T09:24:11.611Z,24.90
2019-01-12T09:25:11.588Z,28.80
2019-01-12T09:26:11.586Z,28.20
2019-01-12T09:27:11.539Z,31.90
2019-01-12T09:28:11.705Z,28.40
2019-01-12T09:29:11.492Z,29.50
2019-01-12T09:30:11.484Z,28.60
2019-01-12T09:31:11.506Z,29.50
2019-01-12T09:32:11.418Z,30.60
2019-01-12T09:33:11.395Z,31.90
2019-01-12T09:34:11.371Z,31.40
2019-01-12T09:35:11.346Z,31.90
2019-01-12T09:36:11.340Z,30.60
2019-01-12T09:37:11.298Z,32.60
2019-01-12T09:38:11.285Z,33.70
2019-01-12T09:39:11.248Z,33.60
2019-01-12T09:40:11.238Z,31.10
2019-01-12T09:41:11.201Z,31.40
2019-01-12T09:42:11.179Z,33.50
2019-01-12T09:43:11.187Z,30.50
2019-01-12T09:44:11.129Z,31.60
2019-01-12T09:45:11.117Z,30.20
2019-01-12T09:46:11.089Z,31.00
2019-01-12T09:47:11.056Z,33.60
2019-01-12T09:48:11.034Z,32.80
2019-01-12T09:49:11.008Z,32.10
2019-01-12T09:50:11.004Z,36.30
2019-01-12T09:51:10.968Z,34.20
2019-01-12T09:52:10.937Z,34.00
2019-01-12T09:53:10.918Z,33.10
2019-01-12T09:54:10.891Z,35.40
2019-01-12T09:55:10.865Z,33.60
2019-01-12T09:56:10.852Z,36.10
2019-01-12T09:57:10.827Z,33.90
2019-01-12T09:58:10.815Z,35.70
2019-01-12T09:59:10.769Z,35.50
2019-01-12T10:00:10.751Z,38.20
2019-01-12T10:01:10.729Z,36.20
2019-01-12T10:02:10.705Z,40.00
2019-01-12T10:03:10.671Z,38.20
2019-01-12T10:04:10.729Z,36.20
2019-01-12T10:05:10.628Z,37.60
2019-01-12T10:06:10.600Z,45.90
2019-01-12T10:07:10.618Z,39.80
2019-01-12T10:08:10.554Z,39.40
2019-01-12T10:09:10.529Z,37.50
2019-01-12T10:10:10.503Z,38.90
2019-01-12T10:11:10.483Z,39.60
2019-01-12T10:12:10.457Z,42.10
2019-01-12T10:13:10.436Z,41.60
2019-01-12T10:14:10.438Z,44.10
2019-01-12T10:15:10.385Z,41.70
2019-01-12T10:16:10.387Z,44.80
2019-01-12T10:17:10.343Z,43.10
2019-01-12T10:18:10.318Z,41.30
2019-01-12T10:19:10.296Z,41.30
2019-01-12T10:20:10.270Z,45.40
2019-01-12T10:21:10.239Z,46.40
2019-01-12T10:22:10.224Z,46.50
2019-01-12T10:23:10.200Z,45.40
2019-01-12T10:24:10.185Z,47.60
2019-01-12T10:25:10.144Z,46.30
2019-01-12T10:26:10.127Z,51.10
2019-01-12T10:27:10.096Z,46.80
2019-01-12T10:28:10.073Z,48.30
2019-01-12T10:29:11.542Z,46.40
2019-01-12T10:30:10.036Z,48.40
2019-01-12T10:31:10.002Z,45.20
2019-01-12T10:32:09.979Z,44.00
2019-01-12T10:33:09.958Z,46.40
2019-01-12T10:34:09.928Z,51.90
2019-01-12T10:35:09.904Z,49.80
2019-01-12T10:36:09.882Z,49.80
2019-01-12T10:37:09.864Z,51.40
2019-01-12T10:38:09.847Z,51.70
2019-01-12T10:39:09.813Z,55.30
2019-01-12T10:40:09.785Z,56.20
2019-01-12T10:41:09.774Z,57.30
2019-01-12T10:42:09.742Z,59.00
2019-01-12T10:43:09.721Z,49.30
2019-01-12T10:44:09.688Z,51.50
2019-01-12T10:45:09.675Z,52.70
2019-01-12T10:46:09.654Z,58.20
2019-01-12T10:47:09.625Z,57.70
2019-01-12T10:48:09.597Z,60.10
2019-01-12T10:49:09.576Z,62.70
2019-01-12T10:50:09.547Z,67.00
2019-01-12T10:51:09.523Z,58.90
2019-01-12T10:52:09.501Z,59.70
2019-01-12T10:53:09.484Z,58.70
2019-01-12T10:54:09.450Z,63.30
2019-01-12T10:55:09.429Z,58.20
2019-01-12T10:56:09.401Z,60.70
2019-01-12T10:57:09.375Z,61.80
2019-01-12T10:58:09.356Z,65.90
2019-01-12T10:59:09.331Z,61.40
2019-01-12T11:00:09.304Z,56.60
2019-01-12T11:01:09.286Z,59.00
2019-01-12T11:02:09.336Z,67.70
2019-01-12T11:03:09.237Z,60.60
2019-01-12T11:04:09.209Z,61.60
2019-01-12T11:05:09.232Z,59.40
2019-01-12T11:06:09.176Z,67.30
2019-01-12T11:07:09.138Z,64.50
2019-01-12T11:08:09.122Z,62.70
2019-01-12T11:09:09.095Z,76.90
2019-01-12T11:10:09.065Z,60.10
2019-01-12T11:11:09.038Z,65.10
2019-01-12T11:12:09.018Z,58.40
2019-01-12T11:13:08.995Z,59.60
2019-01-12T11:14:08.967Z,60.60
2019-01-12T11:15:08.948Z,59.20
2019-01-12T11:16:08.923Z,55.20
2019-01-12T11:17:08.897Z,60.10
2019-01-12T11:18:08.871Z,59.60
2019-01-12T11:19:08.846Z,64.10
2019-01-12T11:20:08.839Z,60.10
2019-01-12T11:21:08.800Z,60.20
2019-01-12T11:22:08.776Z,59.70
2019-01-12T11:23:08.750Z,61.00
2019-01-12T11:24:08.730Z,57.50
2019-01-12T11:25:08.717Z,56.50
2019-01-12T11:26:08.700Z,54.60
2019-01-12T11:27:12.234Z,55.30
2019-01-12T11:28:08.634Z,49.30
2019-01-12T11:29:08.607Z,54.50
2019-01-12T11:30:08.584Z,53.20
2019-01-12T11:31:08.567Z,54.90
2019-01-12T11:32:08.546Z,52.00
2019-01-12T11:33:08.510Z,57.20
2019-01-12T11:34:08.496Z,62.00
2019-01-12T11:35:08.509Z,56.10
2019-01-12T11:36:08.440Z,47.10
2019-01-12T11:37:08.415Z,49.10
2019-01-12T11:38:08.397Z,54.50
2019-01-12T11:39:08.381Z,54.30
2019-01-12T11:40:08.346Z,55.40
2019-01-12T11:41:08.324Z,57.20
2019-01-12T11:42:08.298Z,49.30
2019-01-12T11:43:08.272Z,50.40
2019-01-12T11:44:08.248Z,52.20
2019-01-12T11:45:08.236Z,49.20
2019-01-12T11:46:08.218Z,50.50
2019-01-12T11:47:08.183Z,60.40
2019-01-12T11:48:08.164Z,49.50
2019-01-12T11:49:08.127Z,57.80
2019-01-12T11:50:08.122Z,57.50
2019-01-12T11:51:08.084Z,55.20
2019-01-12T11:52:08.059Z,48.70
2019-01-12T11:53:08.034Z,53.60
2019-01-12T11:54:08.007Z,58.00
2019-01-12T11:55:07.983Z,57.80
2019-01-12T11:56:07.959Z,53.20
2019-01-12T11:57:07.944Z,55.00
2019-01-12T11:58:07.917Z,51.30
2019-01-12T11:59:07.887Z,51.40
2019-01-12T12:00:07.864Z,51.20
2019-01-12T12:01:07.841Z,51.50
2019-01-12T12:02:07.823Z,54.20
2019-01-12T12:03:07.797Z,48.70
2019-01-12T12:04:07.772Z,50.80
2019-01-12T12:05:07.753Z,47.40
2019-01-12T12:06:07.722Z,48.00
2019-01-12T12:07:07.704Z,47.60
2019-01-12T12:08:07.679Z,50.00
2019-01-12T12:09:07.659Z,48.20
2019-01-12T12:10:07.636Z,44.80
2019-01-12T12:11:07.619Z,42.70
2019-01-12T12:12:07.586Z,44.60
2019-01-12T12:13:07.558Z,42.50
2019-01-12T12:14:07.530Z,44.70
2019-01-12T12:15:07.515Z,44.40
2019-01-12T12:16:07.623Z,39.00
2019-01-12T12:17:07.456Z,42.90
2019-01-12T12:18:07.433Z,42.90
2019-01-12T12:19:07.423Z,38.00
2019-01-12T12:20:07.386Z,39.30
2019-01-12T12:21:07.368Z,38.10
2019-01-12T12:22:07.340Z,36.60
2019-01-12T12:23:07.316Z,39.10
2019-01-12T12:24:07.301Z,37.60
2019-01-12T12:25:07.266Z,35.40
2019-01-12T12:26:07.245Z,36.60
2019-01-12T12:27:07.217Z,36.50
2019-01-12T12:28:07.205Z,35.50
2019-01-12T12:29:07.184Z,36.00
2019-01-12T12:30:07.147Z,32.30
2019-01-12T12:31:07.128Z,36.80
2019-01-12T12:32:07.119Z,33.80
2019-01-12T12:33:07.077Z,33.40
2019-01-12T12:34:07.053Z,31.90
2019-01-12T12:35:07.034Z,32.90
2019-01-12T12:36:07.021Z,32.10
2019-01-12T12:37:06.991Z,36.30
2019-01-12T12:38:06.954Z,34.10
2019-01-12T12:39:07.036Z,33.80
2019-01-12T12:40:06.927Z,34.90
2019-01-12T12:41:06.883Z,33.50
2019-01-12T12:42:06.859Z,34.60
2019-01-12T12:43:06.846Z,32.70
2019-01-12T12:44:06.819Z,30.80
2019-01-12T12:45:06.798Z,35.00
2019-01-12T12:46:06.764Z,31.40
2019-01-12T12:47:06.741Z,30.60
2019-01-12T12:48:06.717Z,31.40
2019-01-12T12:49:06.693Z,32.70
2019-01-12T12:50:06.678Z,32.50
2019-01-12T12:51:06.651Z,28.40
2019-01-12T12:52:06.629Z,33.80
2019-01-12T12:53:06.597Z,32.20
2019-01-12T12:54:06.580Z,29.80
2019-01-12T12:55:06.550Z,28.50
2019-01-12T12:56:06.528Z,27.40
2019-01-12T12:57:06.502Z,29.50
2019-01-12T12:58:06.490Z,31.60
2019-01-12T12:59:06.453Z,31.60
2019-01-12T13:00:06.433Z,27.90
2019-01-12T13:01:06.413Z,29.10
2019-01-12T13:02:06.386Z,31.20
2019-01-12T13:03:06.361Z,26.80
2019-01-12T13:04:06.334Z,30.50